createdAt,value
2022-10-05T00:01:01.290Z,98124.41
2022-10-05T00:03:39.113Z,98125.44
2022-10-05T00:06:09.442Z,98121.06
2022-10-05T00:08:37.243Z,98122.53
2022-10-05T00:11:09.512Z,98115.16
2022-10-05T00:13:37.272Z,98112.28
2022-10-05T00:16:08.479Z,98114.81
2022-10-05T00:18:36.643Z,98113.31
2022-10-05T00:21:24.880Z,98109.59
2022-10-05T00:23:56.910Z,98096.19
2022-10-05T00:26:27.724Z,98107.09
2022-10-05T00:28:55.682Z,98109.78
2022-10-05T00:31:32.877Z,98101.94
2022-10-05T00:34:00.878Z,98098.59
2022-10-05T00:36:28.629Z,98107.47
2022-10-05T00:38:56.478Z,98098.78
2022-10-05T00:41:38.968Z,98097.47
2022-10-05T00:44:50.756Z,98096.81
2022-10-05T00:47:41.827Z,98096.63
2022-10-05T00:50:56.779Z,98099.13
2022-10-05T00:53:39.365Z,98102.75
2022-10-05T00:57:04.012Z,98105.53
2022-10-05T00:59:49.475Z,98101.81
2022-10-05T01:02:40.061Z,98109.03
2022-10-05T01:05:35.607Z,98108.38
2022-10-05T01:08:37.393Z,98098.66
2022-10-05T01:11:20.476Z,98106.81
2022-10-05T01:14:11.867Z,98103.75
2022-10-05T01:16:49.078Z,98106.44
2022-10-05T01:19:54.772Z,98101.81
2022-10-05T01:22:34.654Z,98101.47
2022-10-05T01:25:13.103Z,98106.66
2022-10-05T01:28:04.015Z,98098.22
2022-10-05T01:30:42.866Z,98095.19
2022-10-05T01:33:46.357Z,98087.78
2022-10-05T01:36:40.645Z,98082.91
2022-10-05T01:39:43.996Z,98079.75
2022-10-05T01:42:28.170Z,98082.06
2022-10-05T01:45:10.842Z,98075.38
2022-10-05T01:47:49.920Z,98078.44
2022-10-05T01:50:23.138Z,98079.63
2022-10-05T01:53:26.503Z,98077.59
2022-10-05T01:56:38.836Z,98070.75
2022-10-05T01:59:19.984Z,98073.25
2022-10-05T02:02:14.163Z,98073.25
2022-10-05T02:05:08.392Z,98064.66
2022-10-05T02:07:49.588Z,98069.38
2022-10-05T02:10:28.941Z,98059.84
2022-10-05T02:13:17.552Z,98060.84
2022-10-05T02:16:00.484Z,98062.06
2022-10-05T02:18:41.952Z,98058.72
2022-10-05T02:21:10.791Z,98059.44
2022-10-05T02:23:41.272Z,98054.44
2022-10-05T02:26:12.004Z,98056.47
2022-10-05T02:28:53.820Z,98046.56
2022-10-05T02:31:55.838Z,98051.47
2022-10-05T02:34:34.096Z,98051.47
2022-10-05T02:37:37.735Z,98060.53
2022-10-05T02:40:19.596Z,98072.72
2022-10-05T02:43:12.274Z,98075.41
2022-10-05T02:45:54.372Z,98080.19
2022-10-05T02:48:48.260Z,98082.22
2022-10-05T02:51:46.772Z,98082.63
2022-10-05T02:54:40.139Z,98088.56
2022-10-05T02:57:28.910Z,98088.09
2022-10-05T03:00:15.829Z,98088.44
2022-10-05T03:03:06.354Z,98078.44
2022-10-05T03:06:02.501Z,98080.44
2022-10-05T03:09:02.622Z,98070.88
2022-10-05T03:11:43.859Z,98071.00
2022-10-05T03:14:46.660Z,98063.78
2022-10-05T03:17:24.925Z,98073.16
2022-10-05T03:20:18.446Z,98066.97
2022-10-05T03:22:58.807Z,98056.59
2022-10-05T03:25:51.347Z,98052.63
2022-10-05T03:28:31.076Z,98051.59
2022-10-05T03:31:14.876Z,98042.25
2022-10-05T03:33:48.497Z,98040.75
2022-10-05T03:36:50.684Z,98037.22
2022-10-05T03:39:28.189Z,98030.88
2022-10-05T03:42:33.197Z,98029.03
2022-10-05T03:45:33.297Z,98022.66
2022-10-05T03:48:14.320Z,98023.31
2022-10-05T03:51:06.566Z,98014.63
2022-10-05T03:54:07.674Z,98025.50
2022-10-05T03:56:46.652Z,98028.19
2022-10-05T03:59:32.593Z,98030.03
2022-10-05T04:02:26.220Z,98025.16
2022-10-05T04:05:17.619Z,98012.59
2022-10-05T04:08:09.188Z,98016.94
2022-10-05T04:10:54.233Z,98021.94
2022-10-05T04:14:02.277Z,98023.25
2022-10-05T04:16:48.046Z,98023.44
2022-10-05T04:19:27.184Z,98015.56
2022-10-05T04:22:15.911Z,98012.22
2022-10-05T04:24:56.183Z,98012.44
2022-10-05T04:27:48.533Z,98015.28
2022-10-05T04:30:19.719Z,98011.56
2022-10-05T04:32:59.299Z,98012.44
2022-10-05T04:36:04.418Z,98014.63
2022-10-05T04:39:01.944Z,98014.16
2022-10-05T04:41:48.217Z,98023.16
2022-10-05T04:44:27.973Z,98031.69
2022-10-05T04:47:16.673Z,98030.44
2022-10-05T04:50:01.808Z,98045.34
2022-10-05T04:53:10.289Z,98043.88
2022-10-05T04:56:12.860Z,98054.75
2022-10-05T04:59:17.654Z,98053.44
2022-10-05T05:02:03.526Z,98046.75
2022-10-05T05:05:06.006Z,98054.31
2022-10-05T05:07:53.591Z,98054.63
2022-10-05T05:10:51.949Z,98056.16
2022-10-05T05:14:04.250Z,98061.53
2022-10-05T05:16:52.646Z,98051.88
2022-10-05T05:19:35.164Z,98054.56
2022-10-05T05:22:33.838Z,98060.44
2022-10-05T05:25:38.384Z,98056.28
2022-10-05T05:28:51.774Z,98068.00
2022-10-05T05:32:07.085Z,98070.19
2022-10-05T05:35:07.345Z,98076.03
2022-10-05T05:38:20.600Z,98085.22
2022-10-05T05:41:16.664Z,98078.19
2022-10-05T05:44:19.409Z,98078.50
2022-10-05T05:47:18.606Z,98084.50
2022-10-05T05:50:07.891Z,98089.56
2022-10-05T05:52:51.687Z,98085.91
2022-10-05T05:55:36.093Z,98085.56
2022-10-05T05:58:19.545Z,98079.03
2022-10-05T06:01:25.041Z,98085.91
2022-10-05T06:04:25.808Z,98090.06
2022-10-05T06:06:57.777Z,98090.56
2022-10-05T06:09:46.107Z,98081.34
2022-10-05T06:12:41.644Z,98080.88
2022-10-05T06:15:34.748Z,98080.50
2022-10-05T06:18:14.590Z,98097.41
2022-10-05T06:21:11.560Z,98098.56
2022-10-05T06:23:50.754Z,98100.56
2022-10-05T06:26:24.858Z,98106.41
2022-10-05T06:29:04.004Z,98110.06
2022-10-05T06:31:57.921Z,98117.41
2022-10-05T06:34:48.722Z,98121.91
2022-10-05T06:37:56.866Z,98131.06
2022-10-05T06:40:56.084Z,98134.59
2022-10-05T06:43:42.131Z,98128.53
2022-10-05T06:46:55.914Z,98134.88
2022-10-05T06:50:00.558Z,98129.59
2022-10-05T06:53:18.599Z,98139.34
2022-10-05T06:56:54.981Z,98141.19
2022-10-05T07:00:01.634Z,98135.63
2022-10-05T07:02:52.664Z,98141.13
2022-10-05T07:06:00.216Z,98140.44
2022-10-05T07:08:47.182Z,98143.25
2022-10-05T07:11:55.785Z,98138.19
2022-10-05T07:15:22.439Z,98146.38
2022-10-05T07:18:22.236Z,98145.13
2022-10-05T07:21:15.989Z,98148.28
2022-10-05T07:24:33.052Z,98147.78
2022-10-05T07:27:22.787Z,98156.97
2022-10-05T07:30:12.719Z,98143.19
2022-10-05T07:33:13.017Z,98154.22
2022-10-05T07:36:22.871Z,98162.38
2022-10-05T07:39:03.206Z,98154.81
2022-10-05T07:41:47.742Z,98161.66
2022-10-05T07:44:45.755Z,98155.78
2022-10-05T07:47:38.032Z,98162.44
2022-10-05T07:50:44.195Z,98151.53
2022-10-05T07:53:25.542Z,98156.19
2022-10-05T07:56:05.174Z,98158.50
2022-10-05T07:58:43.539Z,98161.84
2022-10-05T08:01:29.653Z,98168.69
2022-10-05T08:04:27.108Z,98155.75
2022-10-05T08:07:07.174Z,98167.72
2022-10-05T08:09:56.387Z,98163.19
2022-10-05T08:12:30.864Z,98163.38
2022-10-05T08:15:17.758Z,98155.81
2022-10-05T08:17:54.632Z,98159.81
2022-10-05T08:20:48.215Z,98160.91
2022-10-05T08:23:22.525Z,98158.19
2022-10-05T08:26:06.506Z,98154.28
2022-10-05T08:28:53.431Z,98150.69
2022-10-05T08:31:29.831Z,98154.84
2022-10-05T08:34:23.303Z,98150.59
2022-10-05T08:37:07.055Z,98147.81
2022-10-05T08:39:53.996Z,98148.09
2022-10-05T08:43:04.727Z,98148.56
2022-10-05T08:45:44.019Z,98145.97
2022-10-05T08:48:42.465Z,98140.88
2022-10-05T08:51:29.628Z,98145.31
2022-10-05T08:54:27.683Z,98147.06
2022-10-05T08:57:22.228Z,98148.00
2022-10-05T09:00:24.035Z,98149.75
2022-10-05T09:03:15.963Z,98145.25
2022-10-05T09:06:11.873Z,98140.84
2022-10-05T09:09:15.238Z,98143.63
2022-10-05T09:12:06.322Z,98142.00
2022-10-05T09:15:25.010Z,98139.41
2022-10-05T09:18:21.645Z,98137.63
2022-10-05T09:21:06.481Z,98138.91
2022-10-05T09:23:43.607Z,98136.44
2022-10-05T09:26:45.686Z,98136.53
2022-10-05T09:30:03.373Z,98133.72
2022-10-05T09:32:39.969Z,98131.94
2022-10-05T09:35:37.911Z,98120.38
2022-10-05T09:38:21.064Z,98124.59
2022-10-05T09:41:30.449Z,98125.47
2022-10-05T09:44:12.923Z,98128.88
2022-10-05T09:47:02.567Z,98127.25
2022-10-05T09:50:04.593Z,98116.38
2022-10-05T09:53:06.026Z,98123.09
2022-10-05T09:56:13.575Z,98114.84
2022-10-05T09:59:18.112Z,98107.66
2022-10-05T10:02:19.639Z,98101.31
2022-10-05T10:05:09.113Z,98100.28
2022-10-05T10:08:04.790Z,98094.09
2022-10-05T10:11:11.462Z,98099.50
2022-10-05T10:14:14.458Z,98087.31
2022-10-05T10:17:01.195Z,98085.44
2022-10-05T10:19:57.039Z,98077.59
2022-10-05T10:22:30.803Z,98079.28
2022-10-05T10:25:42.244Z,98077.63
2022-10-05T10:29:01.159Z,98074.78
2022-10-05T10:32:15.870Z,98076.25
2022-10-05T10:35:26.507Z,98072.13
2022-10-05T10:38:33.870Z,98072.13
2022-10-05T10:41:42.134Z,98080.84
2022-10-05T10:44:40.046Z,98058.03
2022-10-05T10:47:28.513Z,98068.00
2022-10-05T10:50:40.931Z,98064.47
2022-10-05T10:53:56.157Z,98062.41
2022-10-05T10:57:01.159Z,98059.28
2022-10-05T10:59:31.856Z,98059.47
2022-10-05T11:02:29.553Z,98062.59
2022-10-05T11:05:51.341Z,98055.78
2022-10-05T11:08:51.106Z,98049.09
2022-10-05T11:11:37.124Z,98045.56
2022-10-05T11:14:13.751Z,98036.59
2022-10-05T11:17:29.422Z,98039.06
2022-10-05T11:20:25.057Z,98032.59
2022-10-05T11:23:11.551Z,98042.56
2022-10-05T11:25:47.406Z,98034.22
2022-10-05T11:28:52.951Z,98027.97
2022-10-05T11:31:48.066Z,98032.91
2022-10-05T11:34:59.043Z,98021.03
2022-10-05T11:37:49.207Z,98019.91
2022-10-05T11:40:52.676Z,98015.34
2022-10-05T11:44:24.694Z,98016.53
2022-10-05T11:47:24.628Z,98021.25
2022-10-05T11:50:26.831Z,98018.06
2022-10-05T11:53:29.559Z,98000.47
2022-10-05T11:56:18.276Z,98002.69
2022-10-05T11:59:26.685Z,98011.13
2022-10-05T12:02:47.403Z,98009.38
2022-10-05T12:05:36.150Z,98002.19
2022-10-05T12:08:33.827Z,97996.88
2022-10-05T12:11:48.032Z,97996.47
2022-10-05T12:14:41.217Z,97998.97
2022-10-05T12:17:20.888Z,97998.16
2022-10-05T12:20:23.802Z,97995.81
2022-10-05T12:23:38.630Z,97995.59
2022-10-05T12:26:29.095Z,98000.25
2022-10-05T12:29:22.460Z,98002.13
2022-10-05T12:32:07.411Z,97991.44
2022-10-05T12:35:03.285Z,97992.56
2022-10-05T12:37:37.044Z,97991.59
2022-10-05T12:40:34.799Z,97983.56
2022-10-05T12:43:20.781Z,97984.22
2022-10-05T12:46:09.212Z,97983.63
2022-10-05T12:49:17.757Z,97981.31
2022-10-05T12:51:49.499Z,97984.41
2022-10-05T12:54:36.345Z,97985.50
2022-10-05T12:57:15.439Z,97981.75
2022-10-05T12:59:49.287Z,97982.72
2022-10-05T13:02:33.028Z,97974.69
2022-10-05T13:05:10.356Z,97978.25
2022-10-05T13:08:03.728Z,97972.13
2022-10-05T13:10:52.736Z,97981.44
2022-10-05T13:13:50.754Z,97975.88
2022-10-05T13:16:37.641Z,97970.44
2022-10-05T13:19:44.551Z,97977.78
2022-10-05T13:22:34.930Z,97967.25
2022-10-05T13:25:31.261Z,97969.25
2022-10-05T13:28:26.079Z,97975.75
2022-10-05T13:31:13.408Z,97969.41
2022-10-05T13:33:54.361Z,97972.25
2022-10-05T13:36:51.852Z,97970.94
2022-10-05T13:39:37.476Z,97963.22
2022-10-05T13:42:30.510Z,97968.28
2022-10-05T13:45:17.918Z,97961.78
2022-10-05T13:47:48.686Z,97959.75
2022-10-05T13:50:33.608Z,97964.47
2022-10-05T13:53:48.283Z,97956.81
2022-10-05T13:56:51.848Z,97963.59
2022-10-05T13:59:41.810Z,97965.25
2022-10-05T14:02:38.400Z,97961.56
2022-10-05T14:05:23.304Z,97963.44
2022-10-05T14:08:15.792Z,97965.19
2022-10-05T14:10:47.298Z,97962.19
2022-10-05T14:13:26.865Z,97963.69
2022-10-05T14:19:51.178Z,97951.47
2022-10-05T14:22:25.053Z,97952.31
2022-10-05T14:25:07.639Z,97960.94
2022-10-05T14:27:56.105Z,97946.69
2022-10-05T14:30:27.344Z,97947.94
2022-10-05T14:33:06.029Z,97948.50
2022-10-05T14:35:52.685Z,97945.97
2022-10-05T14:38:56.941Z,97947.53
2022-10-05T14:41:28.439Z,97947.88
2022-10-05T14:44:13.675Z,97942.16
2022-10-05T14:46:56.502Z,97940.84
2022-10-05T14:49:38.292Z,97933.66
2022-10-05T14:52:51.696Z,97936.31
2022-10-05T14:55:38.225Z,97937.84
2022-10-05T14:58:31.753Z,97946.63
2022-10-05T15:01:14.806Z,97942.31
2022-10-05T15:03:55.698Z,97937.69
2022-10-05T15:06:42.399Z,97934.25
2022-10-05T15:09:45.611Z,97928.06
2022-10-05T15:12:24.913Z,97927.88
2022-10-05T15:15:25.497Z,97932.50
2022-10-05T15:18:28.392Z,97919.84
2022-10-05T15:21:42.431Z,97932.66
2022-10-05T15:24:50.686Z,97926.19
2022-10-05T15:27:42.153Z,97925.72
2022-10-05T15:30:18.258Z,97927.63
2022-10-05T15:33:10.671Z,97929.25
2022-10-05T15:36:04.353Z,97929.81
2022-10-05T15:39:04.094Z,97928.69
2022-10-05T15:41:40.731Z,97934.03
2022-10-05T15:44:42.235Z,97934.72
2022-10-05T15:47:21.026Z,97931.38
2022-10-05T15:50:16.910Z,97932.38
2022-10-05T15:52:56.201Z,97938.75
2022-10-05T15:55:43.506Z,97938.94
2022-10-05T15:58:35.896Z,97935.53
2022-10-05T16:01:40.284Z,97947.09
2022-10-05T16:04:38.721Z,97943.38
2022-10-05T16:07:37.659Z,97948.06
2022-10-05T16:10:21.604Z,97944.34
2022-10-05T16:13:23.195Z,97949.53
2022-10-05T16:16:24.956Z,97949.59
2022-10-05T16:19:39.491Z,97947.28
2022-10-05T16:22:18.464Z,97953.56
2022-10-05T16:25:12.568Z,97949.25
2022-10-05T16:28:11.835Z,97950.13
2022-10-05T16:31:18.172Z,97952.34
2022-10-05T16:34:23.535Z,97965.47
2022-10-05T16:37:35.702Z,97968.22
2022-10-05T16:40:19.611Z,97971.28
2022-10-05T16:42:57.853Z,97972.13
2022-10-05T16:45:51.751Z,97971.41
2022-10-05T16:48:22.397Z,97975.66
2022-10-05T16:51:16.039Z,97972.34
2022-10-05T16:54:00.446Z,97970.69
2022-10-05T16:57:03.620Z,97977.41
2022-10-05T17:00:04.690Z,97973.56
2022-10-05T17:02:41.642Z,97978.72
2022-10-05T17:05:25.992Z,97974.69
2022-10-05T17:08:38.390Z,97977.75
2022-10-05T17:11:28.263Z,97982.44
2022-10-05T17:14:45.731Z,97985.91
2022-10-05T17:17:52.794Z,97985.78
2022-10-05T17:21:02.859Z,97991.75
2022-10-05T17:24:20.811Z,97995.41
2022-10-05T17:27:02.950Z,97993.94
2022-10-05T17:29:52.323Z,98003.78
2022-10-05T17:32:20.119Z,98002.81
2022-10-05T17:35:02.454Z,98004.31
2022-10-05T17:37:41.636Z,98006.66
2022-10-05T17:40:31.113Z,98007.13
2022-10-05T17:43:25.008Z,98013.22
2022-10-05T17:45:57.205Z,98015.09
2022-10-05T17:49:03.327Z,98023.09
2022-10-05T17:51:49.467Z,98023.53
2022-10-05T17:55:05.388Z,98032.94
2022-10-05T17:57:34.173Z,98031.50
2022-10-05T18:00:05.995Z,98029.25
2022-10-05T18:02:38.512Z,98036.78
2022-10-05T18:05:12.538Z,98034.28
2022-10-05T18:07:42.535Z,98039.53
2022-10-05T18:10:11.611Z,98041.41
2022-10-05T18:12:41.837Z,98040.81
2022-10-05T18:15:09.474Z,98043.13
2022-10-05T18:18:00.937Z,98050.88
2022-10-05T18:20:32.666Z,98047.13
2022-10-05T18:23:03.542Z,98045.25
2022-10-05T18:25:56.086Z,98055.47
2022-10-05T18:28:32.305Z,98069.84
2022-10-05T18:31:30.520Z,98064.72
2022-10-05T18:34:39.579Z,98068.44
2022-10-05T18:37:39.175Z,98065.59
2022-10-05T18:40:24.914Z,98074.13
2022-10-05T18:43:24.763Z,98079.28
2022-10-05T18:46:30.641Z,98081.38
2022-10-05T18:49:29.118Z,98082.88
2022-10-05T18:52:45.026Z,98094.56
2022-10-05T18:55:44.532Z,98092.09
2022-10-05T18:58:55.936Z,98091.47
2022-10-05T19:02:07.283Z,98099.66
2022-10-05T19:04:50.506Z,98103.84
2022-10-05T19:07:18.155Z,98111.41
2022-10-05T19:10:00.372Z,98109.38
2022-10-05T19:12:56.118Z,98117.75
2022-10-05T19:15:42.331Z,98114.69
2022-10-05T19:18:16.193Z,98126.19
2022-10-05T19:20:58.614Z,98126.66
2022-10-05T19:23:55.522Z,98130.81
2022-10-05T19:27:06.799Z,98140.63
2022-10-05T19:30:15.497Z,98140.19
2022-10-05T19:33:05.079Z,98146.88
2022-10-05T19:36:10.794Z,98151.66
2022-10-05T19:39:03.540Z,98162.06
2022-10-05T19:41:54.390Z,98165.41
2022-10-05T19:45:08.915Z,98164.78
2022-10-05T19:48:36.340Z,98168.13
2022-10-05T19:51:35.590Z,98169.34
2022-10-05T19:54:32.412Z,98172.88
2022-10-05T19:57:02.607Z,98179.09
2022-10-05T19:59:34.674Z,98183.09
2022-10-05T20:02:04.164Z,98186.59
2022-10-05T20:04:41.959Z,98192.22
2022-10-05T20:07:21.575Z,98200.34
2022-10-05T20:09:58.759Z,98186.41
2022-10-05T20:12:53.839Z,98199.31
2022-10-05T20:15:46.806Z,98200.16
2022-10-05T20:18:57.863Z,98200.97
2022-10-05T20:21:49.491Z,98212.44
2022-10-05T20:24:25.501Z,98221.38
2022-10-05T20:27:02.411Z,98223.66
2022-10-05T20:29:35.575Z,98224.28
2022-10-05T20:32:08.964Z,98221.56
2022-10-05T20:34:41.356Z,98230.94
2022-10-05T20:37:15.306Z,98232.78
2022-10-05T20:39:43.736Z,98234.88
2022-10-05T20:42:11.960Z,98242.59
2022-10-05T20:44:40.191Z,98234.47
2022-10-05T20:47:10.926Z,98242.59
2022-10-05T20:49:41.279Z,98249.66
2022-10-05T20:52:11.362Z,98250.69
2022-10-05T20:54:39.780Z,98255.47
2022-10-05T20:57:09.415Z,98250.28
2022-10-05T20:59:37.609Z,98261.09
2022-10-05T21:02:06.204Z,98260.88
2022-10-05T21:04:41.716Z,98269.22
2022-10-05T21:07:10.172Z,98270.25
2022-10-05T21:09:39.382Z,98278.53
2022-10-05T21:12:07.356Z,98274.81
2022-10-05T21:14:36.345Z,98271.69
2022-10-05T21:17:06.351Z,98280.44
2022-10-05T21:19:39.414Z,98284.19
2022-10-05T21:22:09.665Z,98289.78
2022-10-05T21:24:39.640Z,98288.97
2022-10-05T21:27:08.328Z,98285.63
2022-10-05T21:29:37.080Z,98293.13
2022-10-05T21:32:08.666Z,98292.28
2022-10-05T21:34:36.896Z,98292.50
2022-10-05T21:37:05.164Z,98290.63
2022-10-05T21:39:33.790Z,98297.47
2022-10-05T21:42:01.782Z,98292.91
2022-10-05T21:44:29.521Z,98293.09
2022-10-05T21:46:57.370Z,98294.34
2022-10-05T21:49:26.345Z,98294.34
2022-10-05T21:51:54.655Z,98294.75
2022-10-05T21:54:23.777Z,98299.75
2022-10-05T21:56:55.550Z,98291.44
2022-10-05T21:59:29.724Z,98294.13
2022-10-05T22:01:57.783Z,98296.22
2022-10-05T22:04:25.565Z,98295.38
2022-10-05T22:06:55.454Z,98295.59
2022-10-05T22:09:23.549Z,98295.59
2022-10-05T22:11:51.516Z,98295.81
2022-10-05T22:14:19.291Z,98299.94
2022-10-05T22:16:47.369Z,98304.75
2022-10-05T22:19:20.023Z,98303.91
2022-10-05T22:21:47.918Z,98304.53
2022-10-05T22:24:15.683Z,98314.31
2022-10-05T22:26:46.728Z,98311.59
2022-10-05T22:29:17.332Z,98313.28
2022-10-05T22:31:48.886Z,98305.38
2022-10-05T22:34:18.291Z,98307.44
2022-10-05T22:36:47.543Z,98312.22
2022-10-05T22:39:16.545Z,98306.81
2022-10-05T22:41:44.592Z,98312.66
2022-10-05T22:44:12.373Z,98316.81
2022-10-05T22:46:40.449Z,98322.84
2022-10-05T22:49:08.232Z,98318.88
2022-10-05T22:51:36.010Z,98325.31
2022-10-05T22:54:03.949Z,98314.06
2022-10-05T22:56:31.937Z,98315.75
2022-10-05T22:58:59.664Z,98315.94
2022-10-05T23:01:27.554Z,98327.19
2022-10-05T23:03:57.215Z,98328.22
2022-10-05T23:06:28.048Z,98330.09
2022-10-05T23:08:55.979Z,98334.66
2022-10-05T23:11:27.870Z,98334.00
2022-10-05T23:13:57.120Z,98336.94
2022-10-05T23:16:28.002Z,98332.75
2022-10-05T23:18:56.687Z,98336.50
2022-10-05T23:21:27.840Z,98341.91
2022-10-05T23:23:55.686Z,98331.09
2022-10-05T23:26:24.956Z,98339.59
2022-10-05T23:28:53.389Z,98334.19
2022-10-05T23:31:25.617Z,98339.41
2022-10-05T23:33:54.098Z,98340.84
2022-10-05T23:36:28.438Z,98342.72
2022-10-05T23:38:56.155Z,98336.47
2022-10-05T23:41:25.008Z,98338.78
2022-10-05T23:43:55.207Z,98341.63
2022-10-05T23:46:23.290Z,98349.56
2022-10-05T23:48:51.270Z,98348.53
2022-10-05T23:51:19.147Z,98347.88
2022-10-05T23:53:46.938Z,98353.47
2022-10-05T23:56:14.684Z,98359.69
2022-10-05T23:58:42.578Z,98359.28
